sensor_id;sensor_type;location;lat;lon;timestamp;pressure;altitude;pressure_sealevel;temperature
64960;BMP180;51487;52.266;10.542;2023-05-29T00:00:14;101184.00;;;13.50
64960;BMP180;51487;52.266;10.542;2023-05-29T00:02:43;101179.00;;;13.40
64960;BMP180;51487;52.266;10.542;2023-05-29T00:05:11;101183.00;;;13.40
64960;BMP180;51487;52.266;10.542;2023-05-29T00:07:38;101179.00;;;13.40
64960;BMP180;51487;52.266;10.542;2023-05-29T00:10:05;101182.00;;;13.40
64960;BMP180;51487;52.266;10.542;2023-05-29T00:12:31;101184.00;;;13.50
64960;BMP180;51487;52.266;10.542;2023-05-29T00:14:57;101187.00;;;13.40
64960;BMP180;51487;52.266;10.542;2023-05-29T00:17:23;101182.00;;;13.40
64960;BMP180;51487;52.266;10.542;2023-05-29T00:19:50;101185.00;;;13.40
64960;BMP180;51487;52.266;10.542;2023-05-29T00:22:15;101179.00;;;13.40
64960;BMP180;51487;52.266;10.542;2023-05-29T00:24:41;101182.00;;;13.30
64960;BMP180;51487;52.266;10.542;2023-05-29T00:27:07;101187.00;;;13.40
64960;BMP180;51487;52.266;10.542;2023-05-29T00:29:34;101189.00;;;13.40
64960;BMP180;51487;52.266;10.542;2023-05-29T00:32:01;101195.00;;;13.40
64960;BMP180;51487;52.266;10.542;2023-05-29T00:34:27;101195.00;;;13.30
64960;BMP180;51487;52.266;10.542;2023-05-29T00:36:53;101202.00;;;13.30
64960;BMP180;51487;52.266;10.542;2023-05-29T00:39:20;101194.00;;;13.30
64960;BMP180;51487;52.266;10.542;2023-05-29T00:41:47;101197.00;;;13.30
64960;BMP180;51487;52.266;10.542;2023-05-29T00:44:19;101208.00;;;13.30
64960;BMP180;51487;52.266;10.542;2023-05-29T00:46:49;101204.00;;;13.10
64960;BMP180;51487;52.266;10.542;2023-05-29T00:49:18;101218.00;;;13.10
64960;BMP180;51487;52.266;10.542;2023-05-29T00:51:45;101214.00;;;13.20
64960;BMP180;51487;52.266;10.542;2023-05-29T00:54:12;101210.00;;;13.10
64960;BMP180;51487;52.266;10.542;2023-05-29T00:56:42;101208.00;;;13.00
64960;BMP180;51487;52.266;10.542;2023-05-29T00:59:09;101209.00;;;13.00
64960;BMP180;51487;52.266;10.542;2023-05-29T01:01:36;101212.00;;;12.90
64960;BMP180;51487;52.266;10.542;2023-05-29T01:04:04;101222.00;;;12.90
64960;BMP180;51487;52.266;10.542;2023-05-29T01:06:35;101225.00;;;12.80
64960;BMP180;51487;52.266;10.542;2023-05-29T01:09:01;101227.00;;;12.80
64960;BMP180;51487;52.266;10.542;2023-05-29T01:11:41;101231.00;;;12.80
64960;BMP180;51487;52.266;10.542;2023-05-29T01:14:36;101223.00;;;12.70
64960;BMP180;51487;52.266;10.542;2023-05-29T01:17:07;101225.00;;;12.70
64960;BMP180;51487;52.266;10.542;2023-05-29T01:20:58;101229.00;;;12.60
64960;BMP180;51487;52.266;10.542;2023-05-29T01:29:08;101224.00;;;12.40
64960;BMP180;51487;52.266;10.542;2023-05-29T01:31:39;101222.00;;;12.50
64960;BMP180;51487;52.266;10.542;2023-05-29T01:34:06;101225.00;;;12.50
64960;BMP180;51487;52.266;10.542;2023-05-29T01:36:31;101230.00;;;12.40
64960;BMP180;51487;52.266;10.542;2023-05-29T01:38:58;101232.00;;;12.40
64960;BMP180;51487;52.266;10.542;2023-05-29T01:41:25;101244.00;;;12.40
64960;BMP180;51487;52.266;10.542;2023-05-29T01:43:52;101243.00;;;12.30
64960;BMP180;51487;52.266;10.542;2023-05-29T01:46:19;101238.00;;;12.20
64960;BMP180;51487;52.266;10.542;2023-05-29T01:48:46;101236.00;;;12.20
64960;BMP180;51487;52.266;10.542;2023-05-29T01:51:12;101242.00;;;12.20
64960;BMP180;51487;52.266;10.542;2023-05-29T01:53:42;101242.00;;;12.10
64960;BMP180;51487;52.266;10.542;2023-05-29T01:56:09;101246.00;;;12.00
64960;BMP180;51487;52.266;10.542;2023-05-29T01:58:37;101244.00;;;11.90
64960;BMP180;51487;52.266;10.542;2023-05-29T02:01:04;101243.00;;;11.90
64960;BMP180;51487;52.266;10.542;2023-05-29T02:03:31;101251.00;;;11.90
64960;BMP180;51487;52.266;10.542;2023-05-29T02:05:58;101252.00;;;11.90
64960;BMP180;51487;52.266;10.542;2023-05-29T02:08:25;101250.00;;;11.90
64960;BMP180;51487;52.266;10.542;2023-05-29T02:10:51;101256.00;;;11.90
64960;BMP180;51487;52.266;10.542;2023-05-29T02:13:17;101254.00;;;11.80
64960;BMP180;51487;52.266;10.542;2023-05-29T02:15:43;101263.00;;;11.80
64960;BMP180;51487;52.266;10.542;2023-05-29T02:18:10;101257.00;;;11.80
64960;BMP180;51487;52.266;10.542;2023-05-29T02:20:38;101254.00;;;11.70
64960;BMP180;51487;52.266;10.542;2023-05-29T02:23:04;101255.00;;;11.70
64960;BMP180;51487;52.266;10.542;2023-05-29T02:25:30;101260.00;;;11.70
64960;BMP180;51487;52.266;10.542;2023-05-29T02:27:55;101264.00;;;11.50
64960;BMP180;51487;52.266;10.542;2023-05-29T02:30:21;101272.00;;;11.50
64960;BMP180;51487;52.266;10.542;2023-05-29T02:32:47;101263.00;;;11.40
64960;BMP180;51487;52.266;10.542;2023-05-29T02:35:12;101269.00;;;11.40
64960;BMP180;51487;52.266;10.542;2023-05-29T02:37:42;101270.00;;;11.30
64960;BMP180;51487;52.266;10.542;2023-05-29T02:40:08;101263.00;;;11.30
64960;BMP180;51487;52.266;10.542;2023-05-29T02:42:34;101259.00;;;11.20
64960;BMP180;51487;52.266;10.542;2023-05-29T02:45:00;101268.00;;;11.10
64960;BMP180;51487;52.266;10.542;2023-05-29T02:47:25;101266.00;;;11.10
64960;BMP180;51487;52.266;10.542;2023-05-29T02:49:51;101271.00;;;11.10
64960;BMP180;51487;52.266;10.542;2023-05-29T02:52:16;101266.00;;;11.00
64960;BMP180;51487;52.266;10.542;2023-05-29T02:54:42;101275.00;;;10.90
64960;BMP180;51487;52.266;10.542;2023-05-29T02:57:07;101264.00;;;11.00
64960;BMP180;51487;52.266;10.542;2023-05-29T02:59:33;101269.00;;;11.00
64960;BMP180;51487;52.266;10.542;2023-05-29T03:01:58;101270.00;;;11.00
64960;BMP180;51487;52.266;10.542;2023-05-29T03:04:24;101274.00;;;11.00
64960;BMP180;51487;52.266;10.542;2023-05-29T03:06:51;101281.00;;;10.90
64960;BMP180;51487;52.266;10.542;2023-05-29T03:09:18;101281.00;;;10.80
64960;BMP180;51487;52.266;10.542;2023-05-29T03:11:43;101272.00;;;10.80
64960;BMP180;51487;52.266;10.542;2023-05-29T03:14:10;101278.00;;;10.90
64960;BMP180;51487;52.266;10.542;2023-05-29T03:16:35;101267.00;;;10.80
64960;BMP180;51487;52.266;10.542;2023-05-29T03:19:01;101275.00;;;10.80
64960;BMP180;51487;52.266;10.542;2023-05-29T03:21:27;101278.00;;;10.80
64960;BMP180;51487;52.266;10.542;2023-05-29T03:23:52;101285.00;;;10.80
64960;BMP180;51487;52.266;10.542;2023-05-29T03:26:18;101278.00;;;10.90
64960;BMP180;51487;52.266;10.542;2023-05-29T03:28:43;101282.00;;;10.90
64960;BMP180;51487;52.266;10.542;2023-05-29T03:31:09;101286.00;;;10.80
64960;BMP180;51487;52.266;10.542;2023-05-29T03:33:36;101292.00;;;10.80
64960;BMP180;51487;52.266;10.542;2023-05-29T03:36:01;101288.00;;;10.80
64960;BMP180;51487;52.266;10.542;2023-05-29T03:38:27;101284.00;;;10.80
64960;BMP180;51487;52.266;10.542;2023-05-29T03:40:53;101277.00;;;10.90
64960;BMP180;51487;52.266;10.542;2023-05-29T03:43:19;101284.00;;;10.80
64960;BMP180;51487;52.266;10.542;2023-05-29T03:45:45;101281.00;;;10.80
64960;BMP180;51487;52.266;10.542;2023-05-29T03:48:10;101285.00;;;10.70
64960;BMP180;51487;52.266;10.542;2023-05-29T03:50:36;101289.00;;;10.70
64960;BMP180;51487;52.266;10.542;2023-05-29T03:53:01;101291.00;;;10.80
64960;BMP180;51487;52.266;10.542;2023-05-29T03:55:27;101288.00;;;10.80
64960;BMP180;51487;52.266;10.542;2023-05-29T03:57:53;101295.00;;;10.80
64960;BMP180;51487;52.266;10.542;2023-05-29T04:00:19;101296.00;;;10.90
64960;BMP180;51487;52.266;10.542;2023-05-29T04:02:45;101297.00;;;10.90
64960;BMP180;51487;52.266;10.542;2023-05-29T04:05:11;101304.00;;;10.80
64960;BMP180;51487;52.266;10.542;2023-05-29T04:07:38;101292.00;;;10.90
64960;BMP180;51487;52.266;10.542;2023-05-29T04:10:05;101292.00;;;11.00
64960;BMP180;51487;52.266;10.542;2023-05-29T04:12:34;101291.00;;;11.10
64960;BMP180;51487;52.266;10.542;2023-05-29T04:15:00;101297.00;;;11.20
64960;BMP180;51487;52.266;10.542;2023-05-29T04:17:26;101299.00;;;11.30
64960;BMP180;51487;52.266;10.542;2023-05-29T04:19:51;101296.00;;;11.30
64960;BMP180;51487;52.266;10.542;2023-05-29T04:22:17;101301.00;;;11.30
64960;BMP180;51487;52.266;10.542;2023-05-29T04:24:43;101301.00;;;11.40
64960;BMP180;51487;52.266;10.542;2023-05-29T04:27:09;101308.00;;;11.50
64960;BMP180;51487;52.266;10.542;2023-05-29T04:29:38;101306.00;;;11.50
64960;BMP180;51487;52.266;10.542;2023-05-29T04:32:06;101306.00;;;11.60
64960;BMP180;51487;52.266;10.542;2023-05-29T04:34:33;101304.00;;;11.60
64960;BMP180;51487;52.266;10.542;2023-05-29T04:36:59;101307.00;;;11.40
64960;BMP180;51487;52.266;10.542;2023-05-29T04:39:25;101306.00;;;11.50
64960;BMP180;51487;52.266;10.542;2023-05-29T04:41:51;101302.00;;;11.50
64960;BMP180;51487;52.266;10.542;2023-05-29T04:44:17;101317.00;;;11.70
64960;BMP180;51487;52.266;10.542;2023-05-29T04:46:43;101320.00;;;11.60
64960;BMP180;51487;52.266;10.542;2023-05-29T04:49:12;101310.00;;;11.50
64960;BMP180;51487;52.266;10.542;2023-05-29T04:51:40;101313.00;;;11.50
64960;BMP180;51487;52.266;10.542;2023-05-29T04:54:07;101320.00;;;11.70
64960;BMP180;51487;52.266;10.542;2023-05-29T04:56:34;101315.00;;;11.60
64960;BMP180;51487;52.266;10.542;2023-05-29T04:58:59;101321.00;;;11.60
64960;BMP180;51487;52.266;10.542;2023-05-29T05:01:25;101322.00;;;11.60
64960;BMP180;51487;52.266;10.542;2023-05-29T05:03:51;101333.00;;;11.70
64960;BMP180;51487;52.266;10.542;2023-05-29T05:06:22;101336.00;;;11.70
64960;BMP180;51487;52.266;10.542;2023-05-29T05:08:50;101322.00;;;11.50
64960;BMP180;51487;52.266;10.542;2023-05-29T05:11:17;101321.00;;;11.50
64960;BMP180;51487;52.266;10.542;2023-05-29T05:13:43;101325.00;;;11.60
64960;BMP180;51487;52.266;10.542;2023-05-29T05:16:09;101314.00;;;11.70
64960;BMP180;51487;52.266;10.542;2023-05-29T05:18:36;101315.00;;;11.80
64960;BMP180;51487;52.266;10.542;2023-05-29T05:21:02;101309.00;;;11.60
64960;BMP180;51487;52.266;10.542;2023-05-29T05:23:31;101308.00;;;11.80
64960;BMP180;51487;52.266;10.542;2023-05-29T05:25:56;101308.00;;;12.00
64960;BMP180;51487;52.266;10.542;2023-05-29T05:28:22;101314.00;;;11.80
64960;BMP180;51487;52.266;10.542;2023-05-29T05:30:47;101315.00;;;12.10
64960;BMP180;51487;52.266;10.542;2023-05-29T05:33:13;101318.00;;;12.10
64960;BMP180;51487;52.266;10.542;2023-05-29T05:35:39;101316.00;;;12.00
64960;BMP180;51487;52.266;10.542;2023-05-29T05:38:04;101318.00;;;11.90
64960;BMP180;51487;52.266;10.542;2023-05-29T05:40:31;101313.00;;;12.00
64960;BMP180;51487;52.266;10.542;2023-05-29T05:42:57;101326.00;;;12.20
64960;BMP180;51487;52.266;10.542;2023-05-29T05:45:22;101322.00;;;12.20
64960;BMP180;51487;52.266;10.542;2023-05-29T05:47:48;101320.00;;;12.20
64960;BMP180;51487;52.266;10.542;2023-05-29T05:50:14;101321.00;;;12.10
64960;BMP180;51487;52.266;10.542;2023-05-29T05:52:39;101319.00;;;12.10
64960;BMP180;51487;52.266;10.542;2023-05-29T05:55:05;101323.00;;;12.10
64960;BMP180;51487;52.266;10.542;2023-05-29T05:57:31;101321.00;;;12.10
64960;BMP180;51487;52.266;10.542;2023-05-29T06:00:07;101321.00;;;12.20
64960;BMP180;51487;52.266;10.542;2023-05-29T06:02:37;101322.00;;;12.40
64960;BMP180;51487;52.266;10.542;2023-05-29T06:05:03;101317.00;;;12.50
64960;BMP180;51487;52.266;10.542;2023-05-29T06:07:32;101326.00;;;12.50
64960;BMP180;51487;52.266;10.542;2023-05-29T06:09:57;101320.00;;;12.50
64960;BMP180;51487;52.266;10.542;2023-05-29T06:12:23;101333.00;;;12.40
64960;BMP180;51487;52.266;10.542;2023-05-29T06:14:49;101337.00;;;12.50
64960;BMP180;51487;52.266;10.542;2023-05-29T06:17:15;101336.00;;;12.70
64960;BMP180;51487;52.266;10.542;2023-05-29T06:19:41;101335.00;;;12.70
64960;BMP180;51487;52.266;10.542;2023-05-29T06:22:06;101334.00;;;12.70
64960;BMP180;51487;52.266;10.542;2023-05-29T06:24:32;101332.00;;;12.80
64960;BMP180;51487;52.266;10.542;2023-05-29T06:26:57;101333.00;;;12.80
64960;BMP180;51487;52.266;10.542;2023-05-29T06:29:23;101341.00;;;13.00
64960;BMP180;51487;52.266;10.542;2023-05-29T06:31:49;101334.00;;;13.00
64960;BMP180;51487;52.266;10.542;2023-05-29T06:34:15;101345.00;;;13.10
64960;BMP180;51487;52.266;10.542;2023-05-29T06:36:40;101338.00;;;13.20
64960;BMP180;51487;52.266;10.542;2023-05-29T06:39:07;101346.00;;;13.10
64960;BMP180;51487;52.266;10.542;2023-05-29T06:41:33;101352.00;;;13.10
64960;BMP180;51487;52.266;10.542;2023-05-29T06:43:58;101344.00;;;13.30
64960;BMP180;51487;52.266;10.542;2023-05-29T06:46:24;101347.00;;;13.20
64960;BMP180;51487;52.266;10.542;2023-05-29T06:48:49;101345.00;;;13.30
64960;BMP180;51487;52.266;10.542;2023-05-29T06:51:15;101357.00;;;13.40
64960;BMP180;51487;52.266;10.542;2023-05-29T06:53:42;101351.00;;;13.50
64960;BMP180;51487;52.266;10.542;2023-05-29T06:56:08;101358.00;;;13.50
64960;BMP180;51487;52.266;10.542;2023-05-29T06:58:34;101351.00;;;13.60
64960;BMP180;51487;52.266;10.542;2023-05-29T07:01:00;101360.00;;;13.70
64960;BMP180;51487;52.266;10.542;2023-05-29T07:03:26;101351.00;;;13.80
64960;BMP180;51487;52.266;10.542;2023-05-29T07:05:52;101355.00;;;13.80
64960;BMP180;51487;52.266;10.542;2023-05-29T07:08:18;101356.00;;;14.00
64960;BMP180;51487;52.266;10.542;2023-05-29T07:10:44;101352.00;;;14.20
64960;BMP180;51487;52.266;10.542;2023-05-29T07:13:15;101359.00;;;14.40
64960;BMP180;51487;52.266;10.542;2023-05-29T07:15:42;101370.00;;;14.40
64960;BMP180;51487;52.266;10.542;2023-05-29T07:18:07;101372.00;;;14.50
64960;BMP180;51487;52.266;10.542;2023-05-29T07:20:33;101381.00;;;14.40
64960;BMP180;51487;52.266;10.542;2023-05-29T07:22:58;101385.00;;;14.00
64960;BMP180;51487;52.266;10.542;2023-05-29T07:25:24;101376.00;;;14.20
64960;BMP180;51487;52.266;10.542;2023-05-29T07:27:50;101388.00;;;14.40
64960;BMP180;51487;52.266;10.542;2023-05-29T07:30:16;101381.00;;;14.50
64960;BMP180;51487;52.266;10.542;2023-05-29T07:32:41;101393.00;;;14.20
64960;BMP180;51487;52.266;10.542;2023-05-29T07:35:07;101389.00;;;14.20
64960;BMP180;51487;52.266;10.542;2023-05-29T07:37:34;101384.00;;;14.20
64960;BMP180;51487;52.266;10.542;2023-05-29T07:40:00;101383.00;;;14.30
64960;BMP180;51487;52.266;10.542;2023-05-29T07:42:25;101380.00;;;14.10
64960;BMP180;51487;52.266;10.542;2023-05-29T07:44:51;101381.00;;;14.20
64960;BMP180;51487;52.266;10.542;2023-05-29T07:47:16;101386.00;;;14.30
64960;BMP180;51487;52.266;10.542;2023-05-29T07:49:42;101379.00;;;14.40
64960;BMP180;51487;52.266;10.542;2023-05-29T07:52:07;101376.00;;;14.40
64960;BMP180;51487;52.266;10.542;2023-05-29T07:54:33;101377.00;;;14.40
64960;BMP180;51487;52.266;10.542;2023-05-29T07:57:00;101374.00;;;14.50
64960;BMP180;51487;52.266;10.542;2023-05-29T07:59:27;101373.00;;;14.50
64960;BMP180;51487;52.266;10.542;2023-05-29T08:01:53;101375.00;;;14.70
64960;BMP180;51487;52.266;10.542;2023-05-29T08:04:23;101374.00;;;14.50
64960;BMP180;51487;52.266;10.542;2023-05-29T08:06:50;101377.00;;;14.70
64960;BMP180;51487;52.266;10.542;2023-05-29T08:09:16;101378.00;;;14.70
64960;BMP180;51487;52.266;10.542;2023-05-29T08:11:42;101378.00;;;14.70
64960;BMP180;51487;52.266;10.542;2023-05-29T08:14:10;101378.00;;;14.80
64960;BMP180;51487;52.266;10.542;2023-05-29T08:16:36;101391.00;;;15.00
64960;BMP180;51487;52.266;10.542;2023-05-29T08:19:01;101376.00;;;14.80
64960;BMP180;51487;52.266;10.542;2023-05-29T08:21:27;101376.00;;;15.00
64960;BMP180;51487;52.266;10.542;2023-05-29T08:23:53;101377.00;;;15.10
64960;BMP180;51487;52.266;10.542;2023-05-29T08:26:18;101386.00;;;15.10
64960;BMP180;51487;52.266;10.542;2023-05-29T08:28:44;101387.00;;;15.00
64960;BMP180;51487;52.266;10.542;2023-05-29T08:31:09;101389.00;;;15.20
64960;BMP180;51487;52.266;10.542;2023-05-29T08:33:35;101392.00;;;15.20
64960;BMP180;51487;52.266;10.542;2023-05-29T08:36:01;101382.00;;;15.30
64960;BMP180;51487;52.266;10.542;2023-05-29T08:38:27;101388.00;;;15.40
64960;BMP180;51487;52.266;10.542;2023-05-29T08:40:54;101377.00;;;15.10
64960;BMP180;51487;52.266;10.542;2023-05-29T08:43:23;101380.00;;;15.10
64960;BMP180;51487;52.266;10.542;2023-05-29T08:45:54;101382.00;;;15.20
64960;BMP180;51487;52.266;10.542;2023-05-29T08:48:24;101384.00;;;15.20
64960;BMP180;51487;52.266;10.542;2023-05-29T08:50:54;101380.00;;;15.20
64960;BMP180;51487;52.266;10.542;2023-05-29T08:53:22;101378.00;;;15.40
64960;BMP180;51487;52.266;10.542;2023-05-29T08:55:49;101373.00;;;15.60
64960;BMP180;51487;52.266;10.542;2023-05-29T08:58:17;101387.00;;;15.70
64960;BMP180;51487;52.266;10.542;2023-05-29T09:00:47;101379.00;;;15.90
64960;BMP180;51487;52.266;10.542;2023-05-29T09:03:13;101386.00;;;16.10
64960;BMP180;51487;52.266;10.542;2023-05-29T09:05:40;101387.00;;;16.10
64960;BMP180;51487;52.266;10.542;2023-05-29T09:08:10;101388.00;;;16.10
64960;BMP180;51487;52.266;10.542;2023-05-29T09:10:41;101384.00;;;16.30
64960;BMP180;51487;52.266;10.542;2023-05-29T09:13:09;101378.00;;;16.00
64960;BMP180;51487;52.266;10.542;2023-05-29T09:15:37;101384.00;;;16.30
64960;BMP180;51487;52.266;10.542;2023-05-29T09:18:05;101387.00;;;16.50
64960;BMP180;51487;52.266;10.542;2023-05-29T09:20:31;101391.00;;;16.70
64960;BMP180;51487;52.266;10.542;2023-05-29T09:22:59;101390.00;;;16.50
64960;BMP180;51487;52.266;10.542;2023-05-29T09:25:29;101391.00;;;16.60
64960;BMP180;51487;52.266;10.542;2023-05-29T09:28:03;101399.00;;;16.70
64960;BMP180;51487;52.266;10.542;2023-05-29T09:30:43;101395.00;;;16.80
64960;BMP180;51487;52.266;10.542;2023-05-29T09:33:12;101398.00;;;16.40
64960;BMP180;51487;52.266;10.542;2023-05-29T09:35:44;101390.00;;;16.60
64960;BMP180;51487;52.266;10.542;2023-05-29T09:38:20;101396.00;;;16.80
64960;BMP180;51487;52.266;10.542;2023-05-29T09:40:46;101403.00;;;17.00
64960;BMP180;51487;52.266;10.542;2023-05-29T09:43:16;101396.00;;;16.90
64960;BMP180;51487;52.266;10.542;2023-05-29T09:45:49;101385.00;;;16.70
64960;BMP180;51487;52.266;10.542;2023-05-29T09:48:17;101383.00;;;16.80
64960;BMP180;51487;52.266;10.542;2023-05-29T09:50:47;101391.00;;;16.80
64960;BMP180;51487;52.266;10.542;2023-05-29T09:53:25;101380.00;;;16.70
64960;BMP180;51487;52.266;10.542;2023-05-29T09:55:53;101383.00;;;16.70
64960;BMP180;51487;52.266;10.542;2023-05-29T09:58:21;101379.00;;;17.00
64960;BMP180;51487;52.266;10.542;2023-05-29T10:00:47;101384.00;;;17.20
64960;BMP180;51487;52.266;10.542;2023-05-29T10:03:15;101378.00;;;17.10
64960;BMP180;51487;52.266;10.542;2023-05-29T10:05:42;101380.00;;;17.20
64960;BMP180;51487;52.266;10.542;2023-05-29T10:08:11;101381.00;;;17.40
64960;BMP180;51487;52.266;10.542;2023-05-29T10:10:42;101378.00;;;17.50
64960;BMP180;51487;52.266;10.542;2023-05-29T10:13:13;101368.00;;;17.70
64960;BMP180;51487;52.266;10.542;2023-05-29T10:15:41;101369.00;;;17.70
64960;BMP180;51487;52.266;10.542;2023-05-29T10:18:24;101373.00;;;17.70
64960;BMP180;51487;52.266;10.542;2023-05-29T10:20:55;101372.00;;;17.80
64960;BMP180;51487;52.266;10.542;2023-05-29T10:23:25;101368.00;;;17.70
64960;BMP180;51487;52.266;10.542;2023-05-29T10:25:53;101373.00;;;17.90
64960;BMP180;51487;52.266;10.542;2023-05-29T10:28:24;101375.00;;;17.60
64960;BMP180;51487;52.266;10.542;2023-05-29T10:33:54;101365.00;;;17.60
64960;BMP180;51487;52.266;10.542;2023-05-29T10:36:44;101362.00;;;17.50
64960;BMP180;51487;52.266;10.542;2023-05-29T10:39:21;101367.00;;;17.70
64960;BMP180;51487;52.266;10.542;2023-05-29T10:41:47;101362.00;;;17.70
64960;BMP180;51487;52.266;10.542;2023-05-29T10:49:24;101347.00;;;17.90
64960;BMP180;51487;52.266;10.542;2023-05-29T10:51:51;101355.00;;;18.10
64960;BMP180;51487;52.266;10.542;2023-05-29T10:54:21;101347.00;;;17.90
64960;BMP180;51487;52.266;10.542;2023-05-29T10:57:00;101347.00;;;18.10
64960;BMP180;51487;52.266;10.542;2023-05-29T10:59:26;101345.00;;;18.10
64960;BMP180;51487;52.266;10.542;2023-05-29T11:01:54;101357.00;;;18.00
64960;BMP180;51487;52.266;10.542;2023-05-29T11:06:46;101347.00;;;18.10
64960;BMP180;51487;52.266;10.542;2023-05-29T11:09:32;101341.00;;;18.10
64960;BMP180;51487;52.266;10.542;2023-05-29T11:15:08;101349.00;;;18.00
64960;BMP180;51487;52.266;10.542;2023-05-29T11:20:06;101362.00;;;18.00
64960;BMP180;51487;52.266;10.542;2023-05-29T11:25:13;101356.00;;;18.10
64960;BMP180;51487;52.266;10.542;2023-05-29T11:27:40;101350.00;;;18.10
64960;BMP180;51487;52.266;10.542;2023-05-29T11:30:07;101355.00;;;18.10
64960;BMP180;51487;52.266;10.542;2023-05-29T11:32:34;101344.00;;;18.10
64960;BMP180;51487;52.266;10.542;2023-05-29T11:35:08;101360.00;;;18.30
64960;BMP180;51487;52.266;10.542;2023-05-29T11:37:38;101347.00;;;18.20
64960;BMP180;51487;52.266;10.542;2023-05-29T11:40:06;101347.00;;;18.40
64960;BMP180;51487;52.266;10.542;2023-05-29T11:42:33;101348.00;;;18.40
64960;BMP180;51487;52.266;10.542;2023-05-29T11:45:15;101359.00;;;18.40
64960;BMP180;51487;52.266;10.542;2023-05-29T11:47:54;101357.00;;;18.00
64960;BMP180;51487;52.266;10.542;2023-05-29T11:50:22;101364.00;;;18.10
64960;BMP180;51487;52.266;10.542;2023-05-29T11:52:52;101355.00;;;18.10
64960;BMP180;51487;52.266;10.542;2023-05-29T11:55:19;101355.00;;;18.20
64960;BMP180;51487;52.266;10.542;2023-05-29T11:57:47;101351.00;;;18.30
64960;BMP180;51487;52.266;10.542;2023-05-29T12:00:18;101336.00;;;18.30
64960;BMP180;51487;52.266;10.542;2023-05-29T12:02:45;101338.00;;;18.30
64960;BMP180;51487;52.266;10.542;2023-05-29T12:05:15;101333.00;;;18.40
64960;BMP180;51487;52.266;10.542;2023-05-29T12:07:50;101336.00;;;18.70
64960;BMP180;51487;52.266;10.542;2023-05-29T12:10:19;101326.00;;;18.70
64960;BMP180;51487;52.266;10.542;2023-05-29T12:12:53;101327.00;;;18.80
64960;BMP180;51487;52.266;10.542;2023-05-29T12:15:20;101337.00;;;19.20
64960;BMP180;51487;52.266;10.542;2023-05-29T12:17:48;101337.00;;;18.80
64960;BMP180;51487;52.266;10.542;2023-05-29T12:20:15;101332.00;;;18.70
64960;BMP180;51487;52.266;10.542;2023-05-29T12:22:43;101333.00;;;18.70
64960;BMP180;51487;52.266;10.542;2023-05-29T12:25:30;101333.00;;;18.80
64960;BMP180;51487;52.266;10.542;2023-05-29T12:27:56;101343.00;;;18.50
64960;BMP180;51487;52.266;10.542;2023-05-29T12:30:23;101331.00;;;18.70
64960;BMP180;51487;52.266;10.542;2023-05-29T12:32:50;101325.00;;;18.90
64960;BMP180;51487;52.266;10.542;2023-05-29T12:35:25;101332.00;;;19.10
64960;BMP180;51487;52.266;10.542;2023-05-29T12:37:57;101331.00;;;19.20
64960;BMP180;51487;52.266;10.542;2023-05-29T12:40:27;101326.00;;;19.10
64960;BMP180;51487;52.266;10.542;2023-05-29T12:42:58;101336.00;;;19.00
64960;BMP180;51487;52.266;10.542;2023-05-29T12:45:32;101340.00;;;18.80
64960;BMP180;51487;52.266;10.542;2023-05-29T12:47:59;101339.00;;;18.50
64960;BMP180;51487;52.266;10.542;2023-05-29T12:50:33;101331.00;;;18.70
64960;BMP180;51487;52.266;10.542;2023-05-29T12:53:04;101328.00;;;18.40
64960;BMP180;51487;52.266;10.542;2023-05-29T12:58:14;101320.00;;;18.80
64960;BMP180;51487;52.266;10.542;2023-05-29T13:00:45;101330.00;;;19.10
64960;BMP180;51487;52.266;10.542;2023-05-29T13:03:11;101320.00;;;19.30
64960;BMP180;51487;52.266;10.542;2023-05-29T13:05:37;101318.00;;;19.50
64960;BMP180;51487;52.266;10.542;2023-05-29T13:08:03;101329.00;;;19.50
64960;BMP180;51487;52.266;10.542;2023-05-29T13:10:32;101315.00;;;19.60
64960;BMP180;51487;52.266;10.542;2023-05-29T13:12:59;101314.00;;;19.70
64960;BMP180;51487;52.266;10.542;2023-05-29T13:15:25;101311.00;;;19.70
64960;BMP180;51487;52.266;10.542;2023-05-29T13:17:52;101320.00;;;19.50
64960;BMP180;51487;52.266;10.542;2023-05-29T13:20:18;101313.00;;;19.40
64960;BMP180;51487;52.266;10.542;2023-05-29T13:22:47;101317.00;;;19.40
64960;BMP180;51487;52.266;10.542;2023-05-29T13:25:14;101318.00;;;19.10
64960;BMP180;51487;52.266;10.542;2023-05-29T13:27:43;101320.00;;;19.20
64960;BMP180;51487;52.266;10.542;2023-05-29T13:30:10;101323.00;;;19.20
64960;BMP180;51487;52.266;10.542;2023-05-29T13:32:38;101329.00;;;19.20
64960;BMP180;51487;52.266;10.542;2023-05-29T13:35:04;101325.00;;;19.10
64960;BMP180;51487;52.266;10.542;2023-05-29T13:37:30;101316.00;;;19.50
64960;BMP180;51487;52.266;10.542;2023-05-29T13:39:56;101312.00;;;19.40
64960;BMP180;51487;52.266;10.542;2023-05-29T13:42:22;101317.00;;;19.40
64960;BMP180;51487;52.266;10.542;2023-05-29T13:44:48;101317.00;;;19.20
64960;BMP180;51487;52.266;10.542;2023-05-29T13:47:15;101314.00;;;19.30
64960;BMP180;51487;52.266;10.542;2023-05-29T13:49:41;101314.00;;;19.50
64960;BMP180;51487;52.266;10.542;2023-05-29T13:52:07;101316.00;;;19.40
64960;BMP180;51487;52.266;10.542;2023-05-29T13:54:33;101313.00;;;19.40
64960;BMP180;51487;52.266;10.542;2023-05-29T13:57:04;101312.00;;;19.30
64960;BMP180;51487;52.266;10.542;2023-05-29T13:59:31;101303.00;;;19.70
64960;BMP180;51487;52.266;10.542;2023-05-29T14:01:58;101301.00;;;19.80
64960;BMP180;51487;52.266;10.542;2023-05-29T14:04:24;101306.00;;;19.60
64960;BMP180;51487;52.266;10.542;2023-05-29T14:06:50;101327.00;;;19.50
64960;BMP180;51487;52.266;10.542;2023-05-29T14:09:16;101303.00;;;19.30
64960;BMP180;51487;52.266;10.542;2023-05-29T14:11:44;101306.00;;;19.40
64960;BMP180;51487;52.266;10.542;2023-05-29T14:14:09;101306.00;;;19.50